πŸ“Š DonnΓ©es MΓ©tΓ©o - Bordeaux

Total mesures

14,350

TempΓ©rature moyenne

18.8Β°C

Temp. Min/Max

2.9Β° / 42.4Β°

HumiditΓ© moyenne

64.9%

Pression moyenne

1014.7 hPa
enregistrements
ID Date/Heure Temp (Β°C) HumiditΓ© (%) Pression (hPa) Tendance LuminositΓ© (lux) Situation
13250 20/08/2026 04:00 19.5 88.0 1,011.5 β†’ Stable 0 pluvieux-gris (approx.)
13249 20/08/2026 03:45 19.5 88.0 1,011.5 β†’ Stable 0 pluvieux-gris (approx.)
13248 20/08/2026 03:30 20.1 89.0 1,011.5 β†’ Stable 0 pluvieux-gris (approx.)
13247 20/08/2026 03:15 20.1 89.0 1,011.5 β†’ Stable 0 pluvieux-gris (approx.)
13246 20/08/2026 03:00 20.1 90.0 1,011.5 β†’ Stable 0 pluvieux-gris (approx.)
13245 20/08/2026 02:45 20.2 89.0 1,011.4 β†’ Stable 0 pluvieux-gris (approx.)
13244 20/08/2026 02:30 20.4 88.0 1,011.4 β†’ Stable 0 pluvieux-gris (approx.)
13243 20/08/2026 02:15 20.5 86.0 1,011.4 β†’ Stable 0 pluvieux-gris (approx.)
13242 20/08/2026 02:00 20.7 84.0 1,011.4 β†’ Stable 0 pluvieux-gris (approx.)
13241 20/08/2026 01:45 20.8 83.0 1,011.2 β†’ Stable 0 pluvieux-gris (approx.)
13240 20/08/2026 01:30 20.6 87.0 1,011.2 β†’ Stable 0 pluvieux-gris (approx.)
13239 20/08/2026 01:15 20.7 87.0 1,011.7 β†’ Stable 0 pluvieux-gris (approx.)
13238 20/08/2026 00:45 21.8 81.0 1,011.6 β†’ Stable 0 pluvieux-gris (approx.)
13237 20/08/2026 00:15 21.9 81.0 1,011.6 β†’ Stable 0 pluvieux-gris (approx.)
13236 20/08/2026 00:00 22.0 81.0 1,011.6 β†’ Stable 0 pluvieux-gris (approx.)
13235 19/08/2026 23:45 22.2 79.0 1,011.8 β†’ Stable 0 pluvieux-gris (approx.)
13234 19/08/2026 23:30 21.8 84.0 1,011.8 β†’ Stable 0 pluvieux-gris (approx.)
13233 19/08/2026 23:15 22.1 81.0 1,011.4 β†’ Stable 0 pluvieux-gris (approx.)
13232 19/08/2026 22:45 22.2 79.0 1,011.7 β†’ Stable 0 pluvieux-gris (approx.)
13231 19/08/2026 22:15 22.6 77.0 1,011.7 β†’ Stable 0 pluvieux-gris (approx.)
13230 19/08/2026 22:00 22.6 78.0 1,011.7 β†’ Stable 0 pluvieux-gris (approx.)
13229 19/08/2026 21:45 22.5 77.0 1,012.0 β†’ Stable 0 pluvieux-gris (approx.)
13228 19/08/2026 21:30 22.6 76.0 1,012.0 β†’ Stable 0 pluvieux-gris (approx.)
13227 19/08/2026 21:15 22.4 77.0 1,012.0 β†’ Stable 0 pluvieux-gris (approx.)
13226 19/08/2026 20:45 22.3 77.0 1,011.4 β†’ Stable 0 pluvieux-gris (approx.)
13225 19/08/2026 20:30 22.7 75.0 1,011.4 β†’ Stable 0 pluvieux-gris (approx.)
13224 19/08/2026 20:15 22.7 74.0 1,011.4 β†’ Stable 0 pluvieux-gris (approx.)
13223 19/08/2026 20:00 22.9 73.0 1,011.4 β†’ Stable 0 pluvieux-gris (approx.)
13222 19/08/2026 19:45 23.1 72.0 1,010.6 β†’ Stable 0 pluvieux-gris (approx.)
13221 19/08/2026 19:30 23.3 68.0 1,010.6 β†’ Stable 0 conditions-neutrales-ou-non-definies
13220 19/08/2026 19:15 23.5 67.0 1,010.6 β†’ Stable 0 conditions-neutrales-ou-non-definies
13219 19/08/2026 18:45 24.0 65.0 1,010.1 β†’ Stable 2,124 confortablement-chaud (approx.)
13218 19/08/2026 18:15 25.0 58.0 1,010.1 β†’ Stable 12,132 confortablement-chaud (approx.)
13217 19/08/2026 17:45 25.9 54.0 1,009.8 β†’ Stable 21,300 confortablement-chaud (approx.)
13216 19/08/2026 17:30 26.6 52.0 1,009.8 β†’ Stable 26,208 confortablement-chaud (approx.)
13215 19/08/2026 17:15 27.0 51.0 1,009.8 β†’ Stable 31,020 confortablement-chaud (approx.)
13214 19/08/2026 17:00 27.2 51.0 1,009.8 β†’ Stable 37,596 confortablement-chaud (approx.)
13213 19/08/2026 16:45 27.5 50.0 1,009.8 β†’ Stable 42,876 confortablement-chaud (approx.)
13212 19/08/2026 16:15 28.1 47.0 1,009.8 β†’ Stable 53,052 confortablement-chaud (approx.)
13211 19/08/2026 15:45 28.5 47.0 1,009.9 β†’ Stable 63,336 confortablement-chaud (approx.)
13210 19/08/2026 15:15 29.1 44.0 1,009.9 β†’ Stable 72,312 confortablement-chaud (approx.)
13209 19/08/2026 15:00 29.3 44.0 1,009.9 β†’ Stable 77,220 confortablement-chaud (approx.)
13208 19/08/2026 14:45 29.4 44.0 1,009.8 β†’ Stable 80,832 confortablement-chaud (approx.)
13207 19/08/2026 14:30 29.4 42.0 1,009.8 β†’ Stable 84,168 confortablement-chaud (approx.)
13206 19/08/2026 14:15 29.5 42.0 1,009.8 β†’ Stable 87,132 confortablement-chaud (approx.)
13205 19/08/2026 13:45 29.3 43.0 1,010.1 β†’ Stable 93,516 confortablement-chaud (approx.)
13204 19/08/2026 13:30 29.3 43.0 1,010.1 β†’ Stable 95,556 confortablement-chaud (approx.)
13203 19/08/2026 13:15 29.3 43.0 1,010.1 β†’ Stable 97,224 confortablement-chaud (approx.)
13202 19/08/2026 12:45 29.3 43.0 1,010.2 β†’ Stable 100,188 confortablement-chaud (approx.)
13201 19/08/2026 12:15 29.3 44.0 1,010.2 β†’ Stable 101,208 confortablement-chaud (approx.)
13200 19/08/2026 12:00 29.2 44.0 1,010.2 β†’ Stable 100,920 confortablement-chaud (approx.)
13199 19/08/2026 11:45 29.3 44.0 1,010.6 β†’ Stable 100,368 confortablement-chaud (approx.)
13198 19/08/2026 11:30 29.1 45.0 1,010.6 β†’ Stable 99,624 confortablement-chaud (approx.)
13197 19/08/2026 11:15 28.4 48.0 1,010.6 β†’ Stable 98,328 confortablement-chaud
13196 19/08/2026 10:45 27.3 53.0 1,011.4 β†’ Stable 94,080 confortablement-chaud
13195 19/08/2026 10:30 27.1 53.0 1,011.4 β†’ Stable 91,668 confortablement-chaud
13194 19/08/2026 10:15 26.6 55.0 1,011.4 β†’ Stable 88,980 confortablement-chaud
13193 19/08/2026 09:45 25.6 59.0 1,011.6 β†’ Stable 81,300 confortablement-chaud
13192 19/08/2026 09:15 24.3 64.0 1,011.6 β†’ Stable 73,884 confortablement-chaud
13191 19/08/2026 08:45 23.3 69.0 1,011.8 β†’ Stable 56,940 conditions-neutrales-ou-non-definies
13190 19/08/2026 08:15 21.4 80.0 1,011.8 β†’ Stable 31,572 pluvieux-gris (approx.)
13189 19/08/2026 08:00 21.2 82.0 1,011.8 β†’ Stable 20,088 pluvieux-gris (approx.)
13188 19/08/2026 07:45 21.0 82.0 1,012.0 β†’ Stable 15,648 pluvieux-gris (approx.)
13187 19/08/2026 07:15 20.1 84.0 1,012.0 β†’ Stable 11,388 pluvieux-gris (approx.)
13186 19/08/2026 07:00 19.8 85.0 1,012.0 β†’ Stable 10,560 pluvieux-gris (approx.)
13185 19/08/2026 06:45 19.6 86.0 1,012.1 β†’ Stable 8,424 pluvieux-gris (approx.)
13184 19/08/2026 06:15 19.0 86.0 1,012.1 β†’ Stable 5,460 pluvieux-gris (approx.)
13183 19/08/2026 05:45 18.5 88.0 1,012.3 β†’ Stable 1,668 pluvieux-gris (approx.)
13182 19/08/2026 05:15 18.4 88.0 1,012.3 β†’ Stable 0 pluvieux-gris (approx.)
13181 19/08/2026 04:45 18.0 89.0 1,012.1 β†’ Stable 0 pluvieux-gris (approx.)
13180 19/08/2026 04:30 18.0 91.0 1,012.1 β†’ Stable 0 pluvieux-gris (approx.)
13179 19/08/2026 04:15 18.0 91.0 1,012.1 β†’ Stable 0 pluvieux-gris (approx.)
13178 19/08/2026 03:45 18.2 90.0 1,012.2 β†’ Stable 0 pluvieux-gris (approx.)
13177 19/08/2026 03:15 18.4 91.0 1,012.2 β†’ Stable 0 pluvieux-gris (approx.)
13176 19/08/2026 02:45 18.6 89.0 1,012.4 β†’ Stable 0 pluvieux-gris (approx.)
13175 19/08/2026 02:30 18.8 90.0 1,012.4 β†’ Stable 0 pluvieux-gris (approx.)
13174 19/08/2026 02:15 18.9 89.0 1,012.4 β†’ Stable 0 pluvieux-gris (approx.)
13173 19/08/2026 01:45 19.0 87.0 1,012.8 β†’ Stable 0 pluvieux-gris (approx.)
13172 19/08/2026 01:30 19.1 88.0 1,012.8 β†’ Stable 0 pluvieux-gris (approx.)
13171 19/08/2026 01:15 19.2 87.0 1,012.7 β†’ Stable 0 pluvieux-gris (approx.)
13170 19/08/2026 00:45 19.4 86.0 1,013.5 β†’ Stable 0 pluvieux-gris (approx.)
13169 19/08/2026 00:30 19.5 87.0 1,013.5 β†’ Stable 0 pluvieux-gris (approx.)
13168 19/08/2026 00:15 19.6 86.0 1,013.5 β†’ Stable 0 pluvieux-gris (approx.)
13167 18/08/2026 23:45 19.8 84.0 1,013.9 β†’ Stable 0 pluvieux-gris (approx.)
13166 18/08/2026 23:30 20.1 83.0 1,013.9 β†’ Stable 0 pluvieux-gris (approx.)
13165 18/08/2026 23:15 20.2 82.0 1,013.9 β†’ Stable 0 pluvieux-gris (approx.)
13164 18/08/2026 23:00 20.3 81.0 1,013.8 β†’ Stable 0 pluvieux-gris (approx.)
13163 18/08/2026 22:45 20.4 81.0 1,013.8 β†’ Stable 0 pluvieux-gris (approx.)
13162 18/08/2026 22:30 20.4 81.0 1,013.8 β†’ Stable 0 pluvieux-gris (approx.)
13161 18/08/2026 22:15 20.6 81.0 1,013.8 β†’ Stable 0 pluvieux-gris (approx.)
13160 18/08/2026 22:00 20.7 80.0 1,013.8 β†’ Stable 0 pluvieux-gris (approx.)
13159 18/08/2026 21:45 20.9 79.0 1,014.0 β†’ Stable 0 pluvieux-gris (approx.)
13158 18/08/2026 21:30 21.2 78.0 1,014.0 β†’ Stable 0 pluvieux-gris (approx.)
13157 18/08/2026 21:15 21.3 77.0 1,014.0 β†’ Stable 0 pluvieux-gris (approx.)
13156 18/08/2026 21:00 21.5 76.0 1,014.0 β†’ Stable 0 pluvieux-gris (approx.)
13155 18/08/2026 20:45 21.7 75.0 1,014.0 β†’ Stable 0 pluvieux-gris (approx.)
13154 18/08/2026 20:30 22.1 73.0 1,014.0 β†’ Stable 0 pluvieux-gris (approx.)
13153 18/08/2026 20:15 22.4 71.0 1,014.0 β†’ Stable 0 pluvieux-gris (approx.)
13152 18/08/2026 19:45 23.3 66.0 1,013.5 β†’ Stable 0 conditions-neutrales-ou-non-definies
13151 18/08/2026 19:30 24.0 61.0 1,013.5 β†’ Stable 0 confortablement-chaud (approx.)